Time;durP1;ratioP1;P1;durP2;ratioP2;P2;SDS_P1;SDS_P2;PMS_P1;PMS_P2;Temp;Humidity;BMP_temperature;BMP_pressure;BME280_temperature;BME280_humidity;BME280_pressure;Samples;Min_cycle;Max_cycle;Signal;HPM_P1;HPM_P2
2022/10/28 00:00:32;;;;;;;13.88;4.72;;;;;;;20.98;67.41;101156.94;5069874;28;20067;-62
2022/10/28 00:03:00;;;;;;;10.52;4.82;;;;;;;21.07;67.35;101154.75;5067173;28;20063;-62
2022/10/28 00:05:28;;;;;;;16.83;4.93;;;;;;;21.04;67.40;101156.28;5059502;28;20064;-62
2022/10/28 00:07:55;;;;;;;14.63;4.50;;;;;;;21.04;67.41;101147.88;5058367;28;20055;-63
2022/10/28 00:10:22;;;;;;;15.43;5.35;;;;;;;21.06;67.03;101147.53;5075493;28;20055;-62
2022/10/28 00:12:50;;;;;;;16.65;5.25;;;;;;;21.07;67.28;101141.56;5041393;28;20512;-61
2022/10/28 00:15:19;;;;;;;15.27;4.90;;;;;;;20.87;67.82;101151.16;5075165;28;20052;-62
2022/10/28 00:17:46;;;;;;;16.73;5.18;;;;;;;20.92;68.26;101152.84;5071795;28;20049;-62
2022/10/28 00:20:14;;;;;;;15.10;5.07;;;;;;;21.01;68.11;101154.25;5060051;28;20055;-62
2022/10/28 00:22:42;;;;;;;15.18;5.00;;;;;;;20.99;67.70;101155.81;5072635;28;20048;-62
2022/10/28 00:25:10;;;;;;;15.65;4.55;;;;;;;20.92;68.24;101161.25;5055798;28;20056;-62
2022/10/28 00:27:37;;;;;;;14.50;4.68;;;;;;;20.86;68.52;101163.53;5061321;28;20052;-62
2022/10/28 00:30:05;;;;;;;11.80;4.47;;;;;;;20.93;68.40;101160.06;5058098;28;20461;-62
2022/10/28 00:32:32;;;;;;;14.23;5.05;;;;;;;20.90;68.14;101160.81;5073076;28;20061;-62
2022/10/28 00:34:59;;;;;;;11.98;4.50;;;;;;;20.89;68.66;101156.38;5074129;28;20067;-61
2022/10/28 00:37:27;;;;;;;16.48;5.10;;;;;;;20.82;68.62;101165.47;5074262;28;20064;-62
2022/10/28 00:39:54;;;;;;;17.67;4.97;;;;;;;20.76;68.83;101168.94;5075280;28;20396;-63
2022/10/28 00:42:21;;;;;;;14.30;4.63;;;;;;;20.76;69.10;101154.94;5068753;28;20055;-62
2022/10/28 00:44:53;;;;;;;14.50;4.38;;;;;;;20.77;69.39;101157.38;5056547;28;20045;-62
2022/10/28 00:47:50;;;;;;;14.80;5.03;;;;;;;20.76;69.38;101152.97;5071443;28;20049;-61
2022/10/28 00:50:32;;;;;;;16.08;5.07;;;;;;;20.88;69.03;101152.78;5066443;28;20045;-61
2022/10/28 00:53:02;;;;;;;15.38;4.32;;;;;;;20.78;68.86;101149.78;5064345;28;20057;-62
2022/10/28 00:55:30;;;;;;;12.73;4.53;;;;;;;20.74;69.07;101148.91;5057910;28;20416;-62
2022/10/28 00:57:58;;;;;;;17.40;5.32;;;;;;;20.70;69.24;101134.84;5057128;28;20056;-62
2022/10/28 01:00:25;;;;;;;15.05;4.72;;;;;;;20.80;69.11;101137.03;5074493;28;20048;-62
2022/10/28 01:02:54;;;;;;;13.85;4.70;;;;;;;20.91;68.74;101135.22;5073252;28;20546;-62
2022/10/28 01:05:24;;;;;;;11.82;4.88;;;;;;;20.87;68.94;101136.38;5073187;28;20518;-61
2022/10/28 01:07:56;;;;;;;14.73;4.78;;;;;;;20.84;68.75;101145.50;5073755;28;20045;-62
2022/10/28 01:10:48;;;;;;;15.20;5.22;;;;;;;20.82;68.63;101143.06;5066529;28;20049;-63
2022/10/28 01:13:52;;;;;;;17.77;5.07;;;;;;;20.65;69.49;101142.72;5063933;28;20060;-62
2022/10/28 01:16:50;;;;;;;13.48;4.72;;;;;;;20.67;69.58;101138.38;5065992;28;20048;-62
2022/10/28 01:19:55;;;;;;;15.55;4.80;;;;;;;20.69;69.13;101140.81;5074583;28;20044;-62
2022/10/28 01:22:33;;;;;;;14.27;4.63;;;;;;;20.70;69.30;101145.22;5072346;28;20041;-62
2022/10/28 01:25:12;;;;;;;15.77;4.75;;;;;;;20.67;69.24;101146.78;5066074;28;20045;-62
2022/10/28 01:28:08;;;;;;;14.90;5.00;;;;;;;20.49;70.64;101137.22;5072955;28;20151;-61
2022/10/28 01:31:14;;;;;;;14.13;4.57;;;;;;;20.58;70.18;101142.59;5071017;28;20071;-63
2022/10/28 01:34:11;;;;;;;13.13;4.60;;;;;;;20.56;70.50;101133.75;5061379;28;20056;-62
2022/10/28 01:36:48;;;;;;;13.80;4.68;;;;;;;20.52;70.34;101130.09;5065524;28;20415;-62
2022/10/28 01:39:50;;;;;;;14.25;4.72;;;;;;;20.52;70.89;101132.91;5071914;28;20059;-62
2022/10/28 01:42:36;;;;;;;13.73;4.43;;;;;;;20.41;71.18;101134.66;5074628;28;20052;-61
2022/10/28 01:45:21;;;;;;;15.80;4.65;;;;;;;20.29;70.83;101127.25;5053168;28;20071;-61
2022/10/28 01:48:00;;;;;;;12.40;4.10;;;;;;;20.41;70.48;101120.66;5053500;28;20040;-61
2022/10/28 01:50:37;;;;;;;16.13;4.57;;;;;;;20.18;70.63;101129.00;5074130;28;20071;-62
2022/10/28 01:53:10;;;;;;;18.35;5.22;;;;;;;20.33;71.09;101124.50;5069967;28;20048;-63
2022/10/28 01:55:41;;;;;;;13.68;4.30;;;;;;;20.46;70.64;101123.16;5056404;28;20052;-63
2022/10/28 01:58:08;;;;;;;;;;;;;;;20.46;70.42;101121.19;5053523;28;20045;-63
2022/10/28 02:00:36;;;;;;;13.98;4.60;;;;;;;20.41;70.29;101120.66;5057234;28;19942;-62
2022/10/28 02:03:05;;;;;;;14.18;4.47;;;;;;;20.55;70.03;101112.56;5067567;28;20060;-62
2022/10/28 02:05:41;;;;;;;12.10;4.22;;;;;;;20.52;70.21;101114.09;5079862;28;20067;-62
2022/10/28 02:08:16;;;;;;;13.38;4.82;;;;;;;20.56;69.99;101122.56;5055554;28;20047;-62
2022/10/28 02:10:59;;;;;;;13.15;4.93;;;;;;;20.37;70.31;101116.97;5054518;28;20041;-63
2022/10/28 02:13:56;;;;;;;19.23;5.05;;;;;;;20.44;69.69;101115.13;5054762;28;20505;-61
2022/10/28 02:16:32;;;;;;;15.18;5.07;;;;;;;20.50;70.16;101113.69;5061673;28;20630;-62
2022/10/28 02:19:24;;;;;;;19.38;4.65;;;;;;;20.48;70.28;101110.44;5072558;28;20446;-62
2022/10/28 02:22:27;;;;;;;11.30;4.45;;;;;;;20.46;69.85;101109.16;5056028;28;20056;-62
2022/10/28 02:25:04;;;;;;;15.93;5.35;;;;;;;20.41;70.43;101103.88;5054833;28;20065;-63
2022/10/28 02:27:40;;;;;;;14.18;4.47;;;;;;;20.42;69.97;101106.31;5070897;28;20044;-63
2022/10/28 02:30:16;;;;;;;16.35;4.47;;;;;;;20.48;70.03;101104.03;5072820;28;20052;-63
2022/10/28 02:33:05;;;;;;;15.18;4.40;;;;;;;20.43;69.79;101101.53;5087787;28;20080;-63
2022/10/28 02:35:52;;;;;;;15.35;4.93;;;;;;;20.54;69.40;101103.34;5072576;28;20056;-63
2022/10/28 02:38:27;;;;;;;14.05;4.78;;;;;;;20.49;69.31;101111.22;5051966;28;20444;-63
2022/10/28 02:40:58;;;;;;;12.23;4.50;;;;;;;20.45;69.59;101101.97;5066362;28;20059;-63
2022/10/28 02:43:29;;;;;;;13.13;4.40;;;;;;;20.53;69.60;101098.13;5072459;28;20083;-63
2022/10/28 02:45:58;;;;;;;17.05;4.90;;;;;;;20.45;69.60;101097.16;5070744;28;20384;-62
2022/10/28 02:48:44;;;;;;;17.03;5.03;;;;;;;20.46;69.79;101106.38;5055918;28;20491;-62
2022/10/28 02:51:19;;;;;;;12.88;4.25;;;;;;;20.38;70.06;101102.63;5047206;28;20396;-63
2022/10/28 02:54:00;;;;;;;13.20;4.57;;;;;;;20.44;70.19;101103.13;5045800;28;20048;-62
2022/10/28 02:56:30;;;;;;;18.30;4.53;;;;;;;20.51;69.89;101104.09;5064004;28;20100;-63
2022/10/28 02:58:58;;;;;;;19.23;4.65;;;;;;;20.55;69.82;101098.56;5073867;28;20467;-63
2022/10/28 06:50:39;;;;;;;16.20;5.25;;;;;;;20.27;67.26;101096.03;5468947;22;20700;31
2022/10/28 06:53:08;;;;;;;19.15;5.43;;;;;;;20.05;67.66;101105.09;4993748;28;20051;-66
2022/10/28 06:55:35;;;;;;;19.02;5.38;;;;;;;19.98;69.92;101108.56;4985453;28;20054;-64
2022/10/28 06:58:02;;;;;;;27.13;6.47;;;;;;;19.83;68.68;101117.00;4992204;28;20535;-64
2022/10/28 07:00:30;;;;;;;26.30;5.90;;;;;;;19.87;70.14;101121.53;4990199;28;20054;-64
2022/10/28 07:03:03;;;;;;;29.13;6.15;;;;;;;19.70;68.21;101118.34;4990191;28;20046;-64
2022/10/28 07:05:30;;;;;;;29.73;9.63;;;;;;;19.71;67.68;101117.97;4994907;28;20054;-65
2022/10/28 07:07:57;;;;;;;34.88;13.05;;;;;;;19.66;67.43;101135.03;4987404;28;20047;-65
2022/10/28 07:10:24;;;;;;;28.02;9.48;;;;;;;19.61;67.38;101140.91;4973603;28;20065;-64
2022/10/28 07:12:52;;;;;;;32.17;7.38;;;;;;;19.51;67.08;101132.25;4979469;28;20062;-65
2022/10/28 07:15:20;;;;;;;27.67;10.18;;;;;;;19.30;67.65;101142.88;4986603;28;20061;-63
2022/10/28 07:17:54;;;;;;;27.33;6.45;;;;;;;19.23;66.61;101137.91;4999368;28;20059;-64
2022/10/28 07:20:22;;;;;;;21.25;6.25;;;;;;;19.33;67.47;101145.81;4992041;28;20051;-62
2022/10/28 07:23:00;;;;;;;22.52;6.22;;;;;;;19.35;67.20;101145.44;4966659;28;20579;-63
2022/10/28 07:25:29;;;;;;;29.65;8.25;;;;;;;19.35;67.38;101146.25;4996437;28;20669;-62
2022/10/28 07:27:57;;;;;;;22.27;5.72;;;;;;;19.46;66.79;101152.91;5005437;28;20049;-63
2022/10/28 07:30:25;;;;;;;26.48;5.85;;;;;;;19.62;66.35;101153.69;4984894;28;20428;-62
2022/10/28 07:32:53;;;;;;;24.83;6.15;;;;;;;19.71;66.22;101153.47;4978357;28;20046;-62
2022/10/28 07:35:21;;;;;;;26.30;6.40;;;;;;;19.77;65.99;101164.00;4997562;28;20555;-70
2022/10/28 07:37:48;;;;;;;20.75;5.88;;;;;;;19.79;65.55;101167.25;4999481;28;20049;-74
2022/10/28 07:40:16;;;;;;;22.60;6.10;;;;;;;20.03;65.36;101160.63;5014899;28;20054;-78
2022/10/28 07:42:44;;;;;;;22.17;6.05;;;;;;;20.20;65.13;101165.00;5005665;28;20050;-69
2022/10/28 07:45:11;;;;;;;25.17;5.60;;;;;;;20.24;65.07;101172.31;4980386;28;20054;-75
2022/10/28 07:47:38;;;;;;;19.13;5.38;;;;;;;20.32;64.08;101176.84;4973363;28;20050;-63
2022/10/28 07:50:07;;;;;;;18.27;5.53;;;;;;;20.43;64.89;101179.88;4990557;28;20138;-63
2022/10/28 07:52:35;;;;;;;28.50;5.78;;;;;;;20.43;64.40;101191.06;4993753;28;20148;-64
2022/10/28 07:55:06;;;;;;;22.08;5.30;;;;;;;20.46;63.91;101179.13;4998109;28;20061;-71
2022/10/28 07:57:34;;;;;;;19.33;5.85;;;;;;;20.47;63.42;101189.16;5011444;28;20061;-64
2022/10/28 08:00:04;;;;;;;23.88;5.93;;;;;;;20.49;63.45;101179.22;4978405;28;20054;-69
2022/10/28 08:02:36;;;;;;;26.60;5.30;;;;;;;20.38;62.62;101188.56;5000032;28;20053;-66
2022/10/28 08:05:04;;;;;;;20.05;5.78;;;;;;;20.61;63.24;101189.44;4998048;28;20057;-64
2022/10/28 08:07:31;;;;;;;32.47;6.03;;;;;;;20.73;62.42;101203.28;4964657;28;20045;-62
2022/10/28 08:10:05;;;;;;;34.47;5.70;;;;;;;20.73;62.51;101208.91;4992938;28;20086;-63
2022/10/28 08:12:32;;;;;;;22.60;5.88;;;;;;;20.84;62.32;101207.91;4980468;28;20042;-64
2022/10/28 08:15:01;;;;;;;21.88;6.03;;;;;;;20.90;61.91;101197.22;4997221;28;20057;-64
2022/10/28 08:17:28;;;;;;;19.60;4.95;;;;;;;20.95;61.31;101205.31;5001274;28;20054;-65
2022/10/28 08:19:56;;;;;;;20.60;5.10;;;;;;;21.04;61.20;101206.72;5010219;28;20050;-63
2022/10/28 08:22:23;;;;;;;25.75;7.38;;;;;;;21.03;61.57;101232.28;4998755;28;20042;-64
2022/10/28 08:24:50;;;;;;;26.33;7.32;;;;;;;21.21;61.23;101211.03;4995550;28;20062;-66
2022/10/28 08:27:18;;;;;;;22.33;5.75;;;;;;;21.19;60.88;101224.59;4997494;28;20504;-62
2022/10/28 08:29:45;;;;;;;18.05;5.80;;;;;;;21.03;61.25;101235.09;4989943;28;20073;-61
2022/10/28 08:32:12;;;;;;;19.63;6.78;;;;;;;21.13;60.73;101226.91;4976922;28;20129;-61
2022/10/28 08:34:40;;;;;;;25.52;6.93;;;;;;;21.12;60.92;101225.28;4968042;28;20073;-62
2022/10/28 08:37:10;;;;;;;20.30;5.15;;;;;;;21.38;59.91;101221.75;4985979;28;20638;-64
2022/10/28 08:39:37;;;;;;;20.50;5.78;;;;;;;21.43;59.47;101229.03;4997939;28;20456;-64
2022/10/28 08:42:26;;;;;;;19.67;6.05;;;;;;;21.34;59.63;101222.88;4991610;28;20053;-66
2022/10/28 08:45:03;;;;;;;19.20;5.95;;;;;;;21.38;59.49;101232.94;4969168;28;20058;-62
2022/10/28 08:47:40;;;;;;;18.20;5.78;;;;;;;21.49;59.38;101227.53;4994226;28;20046;-63
2022/10/28 08:50:17;;;;;;;20.15;5.10;;;;;;;21.35;58.78;101236.50;4979595;28;20053;-64
2022/10/28 08:52:52;;;;;;;18.38;5.60;;;;;;;21.22;59.60;101233.06;4992575;28;20054;-63
2022/10/28 08:55:27;;;;;;;20.33;5.00;;;;;;;21.42;59.34;101228.22;5007764;28;20057;-65
2022/10/28 08:57:57;;;;;;;23.85;5.13;;;;;;;21.42;58.95;101244.22;4979635;28;20054;-65
2022/10/28 09:00:27;;;;;;;18.02;5.32;;;;;;;21.48;59.02;101248.34;4993523;28;20043;-65
2022/10/28 09:03:11;;;;;;;20.88;4.88;;;;;;;21.54;58.65;101272.88;5010692;28;20054;-65
2022/10/28 09:05:40;;;;;;;23.48;5.70;;;;;;;21.59;58.95;101266.97;5004422;28;20069;-65
2022/10/28 09:08:28;;;;;;;17.92;5.63;;;;;;;21.56;58.17;101258.50;4978856;28;20066;-64
2022/10/28 09:11:33;;;;;;;15.90;5.03;;;;;;;21.68;57.75;101256.31;4994221;28;20046;-67
2022/10/28 09:14:22;;;;;;;16.75;5.13;;;;;;;21.61;58.47;101255.38;4997941;28;20046;-66
2022/10/28 09:17:23;;;;;;;20.30;5.18;;;;;;;21.48;58.13;101259.56;4993596;28;20416;-66
2022/10/28 09:19:53;;;;;;;20.85;6.00;;;;;;;21.58;59.00;101254.16;4993543;28;20062;-65
2022/10/28 09:22:47;;;;;;;24.45;5.50;;;;;;;21.63;58.50;101264.22;4987870;28;20073;-67
2022/10/28 09:25:47;;;;;;;20.88;5.78;;;;;;;21.60;59.33;101262.19;4988210;28;20069;-67
2022/10/28 09:28:33;;;;;;;22.58;5.68;;;;;;;21.72;58.86;101276.81;5011955;28;20385;-68
2022/10/28 09:31:10;;;;;;;17.50;5.43;;;;;;;21.73;58.94;101280.41;5003722;28;20046;-66
2022/10/28 09:34:02;;;;;;;19.08;5.60;;;;;;;21.76;58.61;101300.09;5005998;28;20058;-66
2022/10/28 09:36:39;;;;;;;19.77;5.72;;;;;;;21.68;58.43;101295.56;5002347;28;20066;-65
2022/10/28 09:39:14;;;;;;;17.13;4.90;;;;;;;20.99;nan;101302.25;4972954;28;20054;-66
2022/10/28 09:41:42;;;;;;;17.73;5.55;;;;;;;21.31;60.22;101311.28;5005742;28;20053;-66
2022/10/28 09:44:25;;;;;;;15.65;5.20;;;;;;;20.96;60.69;101319.78;4991486;28;20484;-66
2022/10/28 09:46:55;;;;;;;26.55;5.72;;;;;;;21.22;59.72;101317.13;5008738;28;20050;-66
2022/10/28 09:49:26;;;;;;;19.70;6.28;;;;;;;21.48;59.87;101326.84;4972667;28;20061;-65
2022/10/28 09:51:54;;;;;;;19.67;5.72;;;;;;;21.27;59.89;101327.22;4969919;28;20809;-67
2022/10/28 09:54:29;;;;;;;17.38;5.35;;;;;;;21.62;59.79;101313.88;4989150;28;20050;-65
2022/10/28 09:56:56;;;;;;;27.67;6.65;;;;;;;21.79;59.36;101301.38;4992038;28;20054;-66
2022/10/28 09:59:23;;;;;;;25.27;9.07;;;;;;;21.83;60.76;101303.06;5006325;28;20065;-67
2022/10/28 10:01:51;;;;;;;19.38;7.72;;;;;;;21.94;63.87;101309.66;4989797;28;20069;-68
2022/10/28 10:04:21;;;;;;;29.38;10.18;;;;;;;22.10;62.38;101317.94;4989888;28;20050;-64
2022/10/28 10:06:50;;;;;;;;;;;;;;;22.20;60.73;101314.47;4993530;28;20054;-63
2022/10/28 10:09:22;;;;;;;17.65;5.82;;;;;;;22.06;60.27;101326.28;4991427;28;19921;-65
2022/10/28 10:11:51;;;;;;;20.27;5.95;;;;;;;22.01;60.65;101326.63;4990450;28;20538;-67
2022/10/28 10:14:43;;;;;;;21.58;6.28;;;;;;;22.23;60.46;101319.31;4990240;28;20420;-69
2022/10/28 10:17:31;;;;;;;16.48;5.85;;;;;;;22.08;60.39;101332.34;4987833;28;20050;-66
2022/10/28 10:20:03;;;;;;;23.60;6.68;;;;;;;22.08;59.87;101329.53;4995572;28;20046;-66
2022/10/28 10:22:36;;;;;;;20.13;6.35;;;;;;;22.14;59.66;101330.03;4984438;28;20150;-63
2022/10/28 10:25:19;;;;;;;20.58;5.55;;;;;;;22.09;59.22;101342.38;4992394;28;20054;-62
2022/10/28 10:28:15;;;;;;;18.60;6.07;;;;;;;22.04;59.25;101353.91;4988248;28;20053;-63
2022/10/28 10:30:58;;;;;;;22.35;6.63;;;;;;;22.18;59.39;101344.91;4986290;28;20616;-65
2022/10/28 10:33:31;;;;;;;25.40;10.52;;;;;;;22.10;59.60;101344.00;4975693;28;20053;-63
2022/10/28 10:36:04;;;;;;;22.38;6.80;;;;;;;22.22;59.22;101340.16;5007163;28;20046;-65
2022/10/28 10:38:32;;;;;;;22.08;6.90;;;;;;;22.20;59.58;101337.75;5008849;28;20409;-65
2022/10/28 10:40:59;;;;;;;22.13;6.43;;;;;;;22.34;58.93;101349.19;4971631;28;20559;-61
2022/10/28 10:43:32;;;;;;;22.35;6.40;;;;;;;22.46;57.60;101350.97;4992586;28;20485;-64
2022/10/28 10:46:16;;;;;;;22.55;6.30;;;;;;;22.36;58.79;101360.03;4995116;28;20046;-64
2022/10/28 10:48:44;;;;;;;21.80;6.40;;;;;;;22.43;58.62;101346.13;5007575;28;20050;-62
2022/10/28 10:51:22;;;;;;;25.38;6.18;;;;;;;22.38;58.70;101360.47;4992319;28;20050;-64
2022/10/28 10:53:53;;;;;;;21.10;7.50;;;;;;;22.35;58.46;101362.03;4994148;28;20420;-62
2022/10/28 10:56:25;;;;;;;23.33;6.70;;;;;;;22.24;59.42;101363.88;4976434;28;20432;-63
2022/10/28 10:58:55;;;;;;;28.95;6.60;;;;;;;22.19;59.32;101374.63;5000659;28;20069;-64
2022/10/28 11:01:25;;;;;;;24.33;6.70;;;;;;;22.13;59.71;101373.28;4998010;28;20049;-64
2022/10/28 11:03:59;;;;;;;20.70;6.35;;;;;;;22.30;59.24;101386.81;5004976;28;20053;-66
2022/10/28 11:06:33;;;;;;;22.50;7.97;;;;;;;22.36;59.13;101376.88;4996974;28;20054;-63
2022/10/28 11:09:04;;;;;;;28.92;9.43;;;;;;;22.59;58.58;101380.50;4988310;28;20063;-65
2022/10/28 11:11:33;;;;;;;22.98;8.15;;;;;;;22.67;58.52;101392.63;4973231;28;20042;-66
2022/10/28 11:14:09;;;;;;;26.17;7.65;;;;;;;22.54;58.69;101392.06;4991508;28;20073;-65
2022/10/28 11:16:49;;;;;;;19.50;7.57;;;;;;;22.53;59.23;101398.00;4997202;28;20049;-65
2022/10/28 11:19:23;;;;;;;27.45;8.55;;;;;;;22.50;58.33;101398.75;4992990;28;20089;-65
2022/10/28 11:22:09;;;;;;;20.02;7.93;;;;;;;22.62;58.21;101410.63;4998794;28;20042;-64
2022/10/28 11:25:07;;;;;;;20.00;6.53;;;;;;;22.59;58.84;101410.56;5011856;28;20152;-65
2022/10/28 11:27:59;;;;;;;18.10;5.68;;;;;;;22.58;58.94;101406.16;4996552;28;20053;-65
2022/10/28 11:30:43;;;;;;;21.60;6.43;;;;;;;22.74;58.39;101409.59;4982000;28;20057;-66
2022/10/28 11:33:17;;;;;;;22.73;6.55;;;;;;;22.65;58.83;101403.47;4986378;28;20051;-64
2022/10/28 11:36:12;;;;;;;24.25;7.03;;;;;;;22.71;58.76;101393.50;4981524;28;20077;-65
2022/10/28 11:38:57;;;;;;;28.63;7.85;;;;;;;22.73;59.02;101393.94;5012238;28;20206;-65
2022/10/28 11:41:27;;;;;;;28.30;9.05;;;;;;;22.40;59.43;101403.03;5000920;28;20131;-64
2022/10/28 11:43:56;;;;;;;24.27;8.80;;;;;;;22.43;59.94;101399.47;4993710;28;20062;-64
2022/10/28 11:46:55;;;;;;;27.10;8.20;;;;;;;22.52;60.05;101402.00;5007725;28;20054;-64
2022/10/28 11:49:36;;;;;;;22.77;7.45;;;;;;;22.41;59.94;101401.00;4983174;28;20089;-65
2022/10/28 11:52:41;;;;;;;20.83;6.45;;;;;;;22.59;59.91;101404.94;5010157;28;20054;-64
2022/10/28 11:55:24;;;;;;;23.73;7.05;;;;;;;22.68;59.65;101392.28;4995019;28;20061;-64
2022/10/28 11:58:25;;;;;;;19.67;7.40;;;;;;;22.89;59.23;101389.75;4992132;28;20066;-64
2022/10/28 12:00:59;;;;;;;33.13;7.32;;;;;;;22.81;59.25;101385.22;4991203;28;20055;-64
2022/10/28 12:03:39;;;;;;;22.15;7.45;;;;;;;22.78;59.61;101382.38;4993291;28;20050;-65
2022/10/28 12:06:19;;;;;;;22.92;7.45;;;;;;;23.01;59.05;101378.25;4996024;28;20058;-64
2022/10/28 12:09:03;;;;;;;24.00;6.95;;;;;;;23.10;58.86;101372.38;5010982;28;20492;-64
2022/10/28 12:11:55;;;;;;;16.52;7.75;;;;;;;23.09;58.76;101379.16;5002070;28;20523;-65
2022/10/28 12:14:58;;;;;;;27.48;7.40;;;;;;;23.50;57.50;101380.94;5002378;28;20053;-65
2022/10/28 12:17:39;;;;;;;17.88;7.20;;;;;;;23.29;57.97;101375.06;4999005;28;20054;-63
2022/10/28 12:20:22;;;;;;;19.27;6.57;;;;;;;23.30;58.16;101379.47;5004899;28;20054;-63
2022/10/28 12:23:02;;;;;;;18.58;6.38;;;;;;;23.36;58.08;101383.56;4993260;28;20053;-64
2022/10/28 12:25:33;;;;;;;20.92;6.57;;;;;;;23.35;58.25;101391.19;4988616;28;20634;-64
2022/10/28 12:28:05;;;;;;;21.15;6.65;;;;;;;23.44;57.78;101396.50;5008273;28;20047;-64
2022/10/28 12:30:35;;;;;;;20.35;6.05;;;;;;;23.65;57.46;101395.94;5002576;28;20077;-64
2022/10/28 12:33:09;;;;;;;;;;;;;;;23.62;57.37;101388.28;4999774;28;20480;-65
2022/10/28 12:35:40;;;;;;;17.67;6.15;;;;;;;23.43;57.55;101398.50;4994809;28;19926;-65
2022/10/28 12:38:15;;;;;;;18.27;6.15;;;;;;;23.59;57.51;101391.88;4983230;28;20413;-65
2022/10/28 12:41:05;;;;;;;16.27;5.82;;;;;;;23.34;58.38;101389.56;4975555;28;20073;-63
2022/10/28 12:43:39;;;;;;;19.88;5.85;;;;;;;23.19;58.82;101387.75;4998564;28;20050;-64
2022/10/28 12:46:18;;;;;;;19.75;6.32;;;;;;;23.49;57.91;101384.91;4995414;28;20069;-64
2022/10/28 12:48:55;;;;;;;14.02;5.85;;;;;;;23.70;57.61;101389.97;4983132;28;20058;-65
2022/10/28 12:51:27;;;;;;;22.38;5.95;;;;;;;23.72;57.29;101382.75;4976142;28;20046;-64
2022/10/28 12:53:59;;;;;;;18.08;6.32;;;;;;;23.92;57.06;101380.56;4995048;28;20488;-65
2022/10/28 12:56:36;;;;;;;23.13;6.50;;;;;;;23.87;57.09;101376.06;4992322;28;20050;-64
2022/10/28 12:59:04;;;;;;;21.92;6.70;;;;;;;23.90;56.96;101380.13;5007932;28;20065;-64
2022/10/28 13:01:32;;;;;;;28.20;7.60;;;;;;;23.90;56.97;101385.75;4995351;28;20369;-64
2022/10/28 13:04:00;;;;;;;19.02;6.25;;;;;;;23.92;57.23;101386.19;5010587;28;20066;-64
2022/10/28 13:06:30;;;;;;;26.40;6.95;;;;;;;23.93;57.11;101379.34;4993194;28;20046;-65
2022/10/28 13:09:16;;;;;;;37.50;6.80;;;;;;;23.85;57.37;101386.91;4996627;28;20054;-64
2022/10/28 13:12:04;;;;;;;119.47;12.30;;;;;;;23.90;57.22;101385.75;4999549;28;20050;-67
2022/10/28 13:15:03;;;;;;;28.25;6.20;;;;;;;24.07;56.89;101390.78;5011857;28;20055;-65
2022/10/28 13:17:40;;;;;;;27.42;6.57;;;;;;;24.08;56.55;101390.38;4993684;28;20042;-65
2022/10/28 13:20:19;;;;;;;24.48;6.68;;;;;;;24.07;56.78;101385.97;4994473;28;20054;-64
2022/10/28 13:23:11;;;;;;;25.73;6.88;;;;;;;24.10;56.85;101385.16;5005674;28;20489;-64
2022/10/28 13:26:06;;;;;;;23.65;6.93;;;;;;;23.64;58.19;101389.50;4989086;28;20046;-65
2022/10/28 13:28:40;;;;;;;18.17;6.35;;;;;;;23.55;58.46;101383.38;4992553;28;20385;-65
2022/10/28 13:31:07;;;;;;;22.60;12.10;;;;;;;23.75;58.49;101390.41;4958029;28;20054;-63
2022/10/28 13:33:36;;;;;;;22.27;6.70;;;;;;;23.80;58.58;101386.47;4994652;28;20066;-63
2022/10/28 13:36:10;;;;;;;27.67;7.55;;;;;;;23.92;58.10;101394.63;4995661;28;20165;-65
2022/10/28 13:38:37;;;;;;;17.45;7.15;;;;;;;23.71;58.78;101385.97;4995353;28;20050;-64
2022/10/28 13:41:04;;;;;;;21.05;6.93;;;;;;;23.94;58.09;101384.59;4996024;28;20050;-64
2022/10/28 13:43:50;;;;;;;23.92;7.45;;;;;;;23.95;58.05;101385.41;4990841;28;20057;-64
2022/10/28 13:46:55;;;;;;;22.85;6.22;;;;;;;23.96;57.94;101385.00;5000723;28;20057;-65
2022/10/28 13:49:30;;;;;;;22.33;6.60;;;;;;;23.82;58.86;101390.50;4990535;28;20496;-65
2022/10/28 13:52:17;;;;;;;18.80;5.40;;;;;;;23.99;58.22;101389.06;5006251;28;20042;-64
2022/10/28 13:54:44;;;;;;;19.55;5.80;;;;;;;24.02;58.23;101393.94;4976830;28;20057;-64
2022/10/28 13:57:35;;;;;;;16.63;6.03;;;;;;;23.98;58.32;101391.06;4994260;28;20058;-64
2022/10/28 14:00:06;;;;;;;21.60;5.72;;;;;;;23.98;58.30;101391.06;4994698;28;20432;-64
2022/10/28 14:02:38;;;;;;;16.17;5.38;;;;;;;23.94;58.47;101389.41;4997846;28;20046;-64
2022/10/28 14:05:08;;;;;;;22.67;5.85;;;;;;;23.95;59.00;101386.22;4993997;28;20065;-63
2022/10/28 14:07:49;;;;;;;16.35;5.38;;;;;;;23.88;58.77;101391.78;4971065;28;20057;-64
2022/10/28 14:10:31;;;;;;;15.70;5.90;;;;;;;24.01;58.26;101397.94;4991437;28;20046;-64
2022/10/28 14:13:02;;;;;;;16.02;5.35;;;;;;;23.96;58.65;101387.81;4993396;28;20045;-63
2022/10/28 14:15:32;;;;;;;19.83;6.57;;;;;;;24.18;57.84;101375.56;4966769;28;20046;-63
2022/10/28 14:18:03;;;;;;;16.10;5.25;;;;;;;23.82;59.45;101378.44;5006652;28;20057;-64
2022/10/28 14:20:48;;;;;;;18.85;5.97;;;;;;;23.94;59.09;101376.13;5003793;28;20512;-64
2022/10/28 14:23:19;;;;;;;15.45;6.15;;;;;;;24.05;58.42;101377.09;4976868;28;20051;-65
2022/10/28 14:25:49;;;;;;;18.15;5.03;;;;;;;24.02;58.68;101389.13;4995107;28;20046;-64
2022/10/28 14:28:26;;;;;;;17.23;5.70;;;;;;;24.00;58.93;101380.25;5015924;28;20057;-65
2022/10/28 14:31:11;;;;;;;12.63;5.18;;;;;;;23.97;58.60;101391.44;4997734;28;20057;-64
2022/10/28 14:33:41;;;;;;;15.20;5.30;;;;;;;24.00;59.03;101385.06;4994733;28;20069;-64
2022/10/28 14:36:17;;;;;;;18.35;5.10;;;;;;;24.13;58.59;101392.81;4992473;28;20050;-64
2022/10/28 14:39:03;;;;;;;17.33;5.25;;;;;;;24.13;58.80;101389.22;4994032;28;20065;-64
2022/10/28 14:42:08;;;;;;;19.95;5.53;;;;;;;24.04;58.99;101380.28;4962128;28;20050;-65
2022/10/28 14:45:01;;;;;;;15.88;5.25;;;;;;;24.01;59.06;101381.03;4984299;28;20404;-65
2022/10/28 14:47:44;;;;;;;15.50;5.60;;;;;;;23.86;59.55;101382.91;4963577;28;20070;-66
2022/10/28 14:50:23;;;;;;;13.13;5.25;;;;;;;23.86;59.71;101379.28;4996525;28;20065;-64
2022/10/28 14:52:51;;;;;;;;;;;;;;;23.71;59.85;101385.97;4940071;28;1146011;-64
2022/10/28 14:55:21;;;;;;;15.23;4.45;;;;;;;23.71;59.60;101391.59;4994020;28;19928;-64
2022/10/28 14:57:49;;;;;;;17.10;4.10;;;;;;;23.92;57.95;101406.66;4988862;28;20054;-64
2022/10/28 15:00:19;;;;;;;14.43;4.47;;;;;;;24.01;58.34;101397.94;4998359;28;20050;-64
2022/10/28 15:02:47;;;;;;;14.30;3.67;;;;;;;23.75;58.91;101401.69;4998598;28;20493;-66
2022/10/28 15:05:17;;;;;;;14.02;4.20;;;;;;;23.58;59.52;101402.31;4972073;28;20058;-64
2022/10/28 15:07:45;;;;;;;11.52;3.97;;;;;;;23.67;58.86;101393.56;4979758;28;20045;-65
2022/10/28 15:10:24;;;;;;;14.63;3.97;;;;;;;23.58;59.26;101402.31;4979619;28;20046;-64
2022/10/28 15:12:53;;;;;;;13.20;4.45;;;;;;;23.46;59.92;101396.13;4993306;28;20492;-64
2022/10/28 15:15:26;;;;;;;15.23;4.30;;;;;;;23.39;60.39;101397.69;4987681;28;20050;-65
2022/10/28 15:17:53;;;;;;;19.27;4.53;;;;;;;23.55;60.14;101393.81;5002301;28;20158;-67
2022/10/28 15:20:28;;;;;;;13.55;4.55;;;;;;;23.56;60.42;101390.63;4993140;28;20054;-65
2022/10/28 15:23:11;;;;;;;17.90;3.90;;;;;;;23.56;60.41;101396.25;4999360;28;20041;-62
2022/10/28 15:25:38;;;;;;;12.38;3.90;;;;;;;23.55;60.20;101397.44;4987247;28;20062;-64
2022/10/28 15:28:09;;;;;;;17.15;4.18;;;;;;;23.49;60.98;101406.59;4996028;28;20046;-63
2022/10/28 15:30:38;;;;;;;16.45;4.70;;;;;;;23.50;60.98;101405.41;4989850;28;20122;-66
2022/10/28 15:33:28;;;;;;;18.30;4.50;;;;;;;23.61;60.38;101412.78;4991640;28;20053;-64
2022/10/28 15:36:11;;;;;;;14.77;4.68;;;;;;;23.66;60.65;101403.19;5004399;28;20508;-64
2022/10/28 15:38:45;;;;;;;18.60;5.32;;;;;;;23.40;61.91;101402.09;4997552;28;20065;-62
2022/10/28 15:41:22;;;;;;;23.95;5.10;;;;;;;23.48;61.95;101403.00;5012396;28;20058;-63
2022/10/28 15:43:58;;;;;;;16.38;5.28;;;;;;;23.49;62.26;101401.78;4994883;28;20057;-64
2022/10/28 15:46:26;;;;;;;23.23;5.75;;;;;;;23.50;62.91;101400.63;4988543;28;20477;-66